sensor_id;sensor_type;location;lat;lon;timestamp;P1;durP1;ratioP1;P2;durP2;ratioP2
970;SDS011;28939;45.540;-122.632;2022-07-06T00:00:15;3.60;;;3.07;;
970;SDS011;28939;45.540;-122.632;2022-07-06T00:02:46;3.30;;;3.00;;
970;SDS011;28939;45.540;-122.632;2022-07-06T00:05:17;2.70;;;2.50;;
970;SDS011;28939;45.540;-122.632;2022-07-06T00:07:49;3.87;;;3.47;;
970;SDS011;28939;45.540;-122.632;2022-07-06T00:10:20;2.80;;;2.60;;
970;SDS011;28939;45.540;-122.632;2022-07-06T00:12:51;3.57;;;3.20;;
970;SDS011;28939;45.540;-122.632;2022-07-06T00:15:21;4.10;;;3.70;;
970;SDS011;28939;45.540;-122.632;2022-07-06T00:17:52;3.27;;;2.97;;
970;SDS011;28939;45.540;-122.632;2022-07-06T00:20:23;3.10;;;2.80;;
970;SDS011;28939;45.540;-122.632;2022-07-06T00:22:56;3.70;;;3.40;;
970;SDS011;28939;45.540;-122.632;2022-07-06T00:25:26;3.90;;;3.50;;
970;SDS011;28939;45.540;-122.632;2022-07-06T00:27:57;3.80;;;3.40;;
970;SDS011;28939;45.540;-122.632;2022-07-06T00:30:28;3.13;;;2.80;;
970;SDS011;28939;45.540;-122.632;2022-07-06T00:32:59;3.80;;;2.83;;
970;SDS011;28939;45.540;-122.632;2022-07-06T00:35:30;3.20;;;2.90;;
970;SDS011;28939;45.540;-122.632;2022-07-06T00:38:02;4.20;;;3.80;;
970;SDS011;28939;45.540;-122.632;2022-07-06T00:40:33;3.10;;;2.90;;
970;SDS011;28939;45.540;-122.632;2022-07-06T00:43:04;3.40;;;3.10;;
970;SDS011;28939;45.540;-122.632;2022-07-06T00:45:35;3.67;;;3.30;;
970;SDS011;28939;45.540;-122.632;2022-07-06T00:48:06;3.60;;;3.30;;
970;SDS011;28939;45.540;-122.632;2022-07-06T00:50:37;3.57;;;3.27;;
970;SDS011;28939;45.540;-122.632;2022-07-06T00:53:10;5.73;;;3.43;;
970;SDS011;28939;45.540;-122.632;2022-07-06T00:55:43;4.07;;;3.70;;
970;SDS011;28939;45.540;-122.632;2022-07-06T00:58:14;3.73;;;3.43;;
970;SDS011;28939;45.540;-122.632;2022-07-06T01:00:47;4.40;;;3.10;;
970;SDS011;28939;45.540;-122.632;2022-07-06T01:03:18;4.07;;;3.53;;
970;SDS011;28939;45.540;-122.632;2022-07-06T01:05:49;3.23;;;2.80;;
970;SDS011;28939;45.540;-122.632;2022-07-06T01:08:23;3.77;;;3.47;;
970;SDS011;28939;45.540;-122.632;2022-07-06T01:10:54;3.43;;;3.03;;
970;SDS011;28939;45.540;-122.632;2022-07-06T01:13:25;3.20;;;2.90;;
970;SDS011;28939;45.540;-122.632;2022-07-06T01:15:56;3.40;;;3.10;;
970;SDS011;28939;45.540;-122.632;2022-07-06T01:18:27;3.83;;;3.53;;
970;SDS011;28939;45.540;-122.632;2022-07-06T01:21:11;3.93;;;3.63;;
970;SDS011;28939;45.540;-122.632;2022-07-06T01:23:43;3.63;;;3.30;;
970;SDS011;28939;45.540;-122.632;2022-07-06T01:26:16;3.53;;;3.27;;
970;SDS011;28939;45.540;-122.632;2022-07-06T01:28:49;3.20;;;3.00;;
970;SDS011;28939;45.540;-122.632;2022-07-06T01:31:21;4.43;;;3.20;;
970;SDS011;28939;45.540;-122.632;2022-07-06T01:33:54;3.97;;;3.50;;
970;SDS011;28939;45.540;-122.632;2022-07-06T01:36:28;3.70;;;3.23;;
970;SDS011;28939;45.540;-122.632;2022-07-06T01:38:58;4.63;;;3.53;;
970;SDS011;28939;45.540;-122.632;2022-07-06T01:41:29;3.17;;;2.87;;
970;SDS011;28939;45.540;-122.632;2022-07-06T01:44:00;4.00;;;3.07;;
970;SDS011;28939;45.540;-122.632;2022-07-06T01:46:31;2.90;;;2.60;;
970;SDS011;28939;45.540;-122.632;2022-07-06T01:49:02;3.53;;;3.20;;
970;SDS011;28939;45.540;-122.632;2022-07-06T01:51:35;5.40;;;4.27;;
970;SDS011;28939;45.540;-122.632;2022-07-06T01:54:05;3.30;;;3.00;;
970;SDS011;28939;45.540;-122.632;2022-07-06T01:56:36;5.00;;;3.50;;
970;SDS011;28939;45.540;-122.632;2022-07-06T01:59:07;3.70;;;3.40;;
970;SDS011;28939;45.540;-122.632;2022-07-06T02:01:38;3.53;;;2.70;;
970;SDS011;28939;45.540;-122.632;2022-07-06T02:04:09;3.40;;;3.10;;
970;SDS011;28939;45.540;-122.632;2022-07-06T02:06:41;2.97;;;2.70;;
970;SDS011;28939;45.540;-122.632;2022-07-06T02:09:12;3.70;;;2.90;;
970;SDS011;28939;45.540;-122.632;2022-07-06T02:11:44;3.60;;;3.23;;
970;SDS011;28939;45.540;-122.632;2022-07-06T02:14:15;2.83;;;2.63;;
970;SDS011;28939;45.540;-122.632;2022-07-06T02:16:47;3.67;;;3.30;;
970;SDS011;28939;45.540;-122.632;2022-07-06T02:19:18;2.93;;;2.63;;
970;SDS011;28939;45.540;-122.632;2022-07-06T02:21:50;3.63;;;2.63;;
970;SDS011;28939;45.540;-122.632;2022-07-06T02:24:21;4.57;;;3.10;;
970;SDS011;28939;45.540;-122.632;2022-07-06T02:26:52;3.90;;;3.60;;
970;SDS011;28939;45.540;-122.632;2022-07-06T02:29:23;3.20;;;2.90;;
970;SDS011;28939;45.540;-122.632;2022-07-06T02:31:54;3.17;;;2.87;;
970;SDS011;28939;45.540;-122.632;2022-07-06T02:34:27;3.03;;;2.73;;
970;SDS011;28939;45.540;-122.632;2022-07-06T02:37:00;3.30;;;3.00;;
970;SDS011;28939;45.540;-122.632;2022-07-06T02:39:33;4.30;;;3.10;;
970;SDS011;28939;45.540;-122.632;2022-07-06T02:42:04;3.63;;;3.17;;
970;SDS011;28939;45.540;-122.632;2022-07-06T02:44:35;3.30;;;2.90;;
970;SDS011;28939;45.540;-122.632;2022-07-06T02:47:07;2.90;;;2.67;;
970;SDS011;28939;45.540;-122.632;2022-07-06T02:49:40;3.37;;;3.00;;
970;SDS011;28939;45.540;-122.632;2022-07-06T02:52:12;3.20;;;2.57;;
970;SDS011;28939;45.540;-122.632;2022-07-06T02:54:43;3.83;;;2.47;;
970;SDS011;28939;45.540;-122.632;2022-07-06T02:57:14;3.97;;;3.03;;
970;SDS011;28939;45.540;-122.632;2022-07-06T02:59:45;3.87;;;3.20;;
970;SDS011;28939;45.540;-122.632;2022-07-06T03:02:17;2.80;;;2.57;;
970;SDS011;28939;45.540;-122.632;2022-07-06T03:04:48;4.10;;;3.70;;
970;SDS011;28939;45.540;-122.632;2022-07-06T03:07:20;5.10;;;3.33;;
970;SDS011;28939;45.540;-122.632;2022-07-06T03:09:51;4.40;;;2.90;;
970;SDS011;28939;45.540;-122.632;2022-07-06T03:12:22;3.90;;;3.60;;
970;SDS011;28939;45.540;-122.632;2022-07-06T03:14:53;3.70;;;3.40;;
970;SDS011;28939;45.540;-122.632;2022-07-06T03:17:24;3.20;;;2.90;;
970;SDS011;28939;45.540;-122.632;2022-07-06T03:19:55;3.27;;;2.83;;
970;SDS011;28939;45.540;-122.632;2022-07-06T03:22:27;3.10;;;2.70;;
970;SDS011;28939;45.540;-122.632;2022-07-06T03:24:59;2.97;;;2.67;;
970;SDS011;28939;45.540;-122.632;2022-07-06T03:27:30;3.40;;;3.10;;
970;SDS011;28939;45.540;-122.632;2022-07-06T03:30:01;3.90;;;3.03;;
970;SDS011;28939;45.540;-122.632;2022-07-06T03:32:40;3.20;;;2.90;;
970;SDS011;28939;45.540;-122.632;2022-07-06T03:35:10;2.80;;;2.53;;
970;SDS011;28939;45.540;-122.632;2022-07-06T03:37:43;3.63;;;2.40;;
970;SDS011;28939;45.540;-122.632;2022-07-06T03:40:14;3.17;;;2.87;;
970;SDS011;28939;45.540;-122.632;2022-07-06T03:42:45;3.03;;;2.83;;
970;SDS011;28939;45.540;-122.632;2022-07-06T03:45:15;4.17;;;2.97;;
970;SDS011;28939;45.540;-122.632;2022-07-06T03:47:46;4.37;;;2.83;;
970;SDS011;28939;45.540;-122.632;2022-07-06T03:50:17;3.83;;;3.43;;
970;SDS011;28939;45.540;-122.632;2022-07-06T03:52:49;4.53;;;2.93;;
970;SDS011;28939;45.540;-122.632;2022-07-06T03:55:20;3.63;;;3.17;;
970;SDS011;28939;45.540;-122.632;2022-07-06T03:57:51;3.90;;;3.10;;
970;SDS011;28939;45.540;-122.632;2022-07-06T04:00:22;3.70;;;3.00;;
970;SDS011;28939;45.540;-122.632;2022-07-06T04:02:53;4.03;;;3.47;;
970;SDS011;28939;45.540;-122.632;2022-07-06T04:05:23;3.50;;;3.20;;
970;SDS011;28939;45.540;-122.632;2022-07-06T04:07:56;3.73;;;3.43;;
970;SDS011;28939;45.540;-122.632;2022-07-06T04:10:27;3.30;;;3.00;;
970;SDS011;28939;45.540;-122.632;2022-07-06T04:12:57;3.33;;;3.03;;
970;SDS011;28939;45.540;-122.632;2022-07-06T04:15:28;3.70;;;3.40;;
970;SDS011;28939;45.540;-122.632;2022-07-06T04:17:59;3.20;;;2.90;;
970;SDS011;28939;45.540;-122.632;2022-07-06T04:20:30;2.80;;;2.57;;
970;SDS011;28939;45.540;-122.632;2022-07-06T04:23:03;3.40;;;3.10;;
970;SDS011;28939;45.540;-122.632;2022-07-06T04:25:34;2.87;;;2.67;;
970;SDS011;28939;45.540;-122.632;2022-07-06T04:28:04;3.07;;;2.80;;
970;SDS011;28939;45.540;-122.632;2022-07-06T04:30:35;2.50;;;2.13;;
970;SDS011;28939;45.540;-122.632;2022-07-06T04:33:06;2.23;;;2.03;;
970;SDS011;28939;45.540;-122.632;2022-07-06T04:35:37;3.33;;;2.50;;
970;SDS011;28939;45.540;-122.632;2022-07-06T04:38:09;2.23;;;2.00;;
970;SDS011;28939;45.540;-122.632;2022-07-06T04:40:40;2.37;;;2.17;;
970;SDS011;28939;45.540;-122.632;2022-07-06T04:43:13;2.40;;;2.20;;
970;SDS011;28939;45.540;-122.632;2022-07-06T04:45:44;3.53;;;2.73;;
970;SDS011;28939;45.540;-122.632;2022-07-06T04:48:15;3.07;;;2.33;;
970;SDS011;28939;45.540;-122.632;2022-07-06T04:50:46;2.50;;;2.30;;
970;SDS011;28939;45.540;-122.632;2022-07-06T04:53:19;2.20;;;2.10;;
970;SDS011;28939;45.540;-122.632;2022-07-06T04:55:49;2.60;;;2.40;;
970;SDS011;28939;45.540;-122.632;2022-07-06T04:58:20;2.23;;;2.10;;
970;SDS011;28939;45.540;-122.632;2022-07-06T05:00:52;2.57;;;2.30;;
970;SDS011;28939;45.540;-122.632;2022-07-06T05:03:23;2.40;;;2.20;;
970;SDS011;28939;45.540;-122.632;2022-07-06T05:05:54;3.07;;;2.67;;
970;SDS011;28939;45.540;-122.632;2022-07-06T05:08:26;2.70;;;2.50;;
970;SDS011;28939;45.540;-122.632;2022-07-06T05:10:57;2.90;;;2.70;;
970;SDS011;28939;45.540;-122.632;2022-07-06T05:13:28;2.50;;;2.30;;
970;SDS011;28939;45.540;-122.632;2022-07-06T05:15:59;4.53;;;2.33;;
970;SDS011;28939;45.540;-122.632;2022-07-06T05:18:30;3.50;;;2.73;;
970;SDS011;28939;45.540;-122.632;2022-07-06T05:21:01;3.00;;;2.63;;
970;SDS011;28939;45.540;-122.632;2022-07-06T05:23:33;2.77;;;2.50;;
970;SDS011;28939;45.540;-122.632;2022-07-06T05:26:04;2.70;;;2.50;;
970;SDS011;28939;45.540;-122.632;2022-07-06T05:28:35;2.70;;;2.50;;
970;SDS011;28939;45.540;-122.632;2022-07-06T05:31:06;2.90;;;2.70;;
970;SDS011;28939;45.540;-122.632;2022-07-06T05:33:37;2.80;;;2.60;;
970;SDS011;28939;45.540;-122.632;2022-07-06T05:36:08;2.90;;;2.10;;
970;SDS011;28939;45.540;-122.632;2022-07-06T05:38:40;2.87;;;2.63;;
970;SDS011;28939;45.540;-122.632;2022-07-06T05:41:11;2.23;;;2.10;;
970;SDS011;28939;45.540;-122.632;2022-07-06T05:43:42;2.83;;;2.63;;
970;SDS011;28939;45.540;-122.632;2022-07-06T05:46:12;3.50;;;2.80;;
970;SDS011;28939;45.540;-122.632;2022-07-06T05:48:44;2.43;;;2.23;;
970;SDS011;28939;45.540;-122.632;2022-07-06T05:51:31;3.80;;;3.37;;
970;SDS011;28939;45.540;-122.632;2022-07-06T05:54:03;2.90;;;2.63;;
970;SDS011;28939;45.540;-122.632;2022-07-06T05:56:34;2.97;;;2.60;;
970;SDS011;28939;45.540;-122.632;2022-07-06T05:59:05;2.70;;;2.50;;
970;SDS011;28939;45.540;-122.632;2022-07-06T06:01:36;3.20;;;2.90;;
970;SDS011;28939;45.540;-122.632;2022-07-06T06:04:07;2.60;;;2.40;;
970;SDS011;28939;45.540;-122.632;2022-07-06T06:06:38;2.70;;;2.50;;
970;SDS011;28939;45.540;-122.632;2022-07-06T06:09:10;2.87;;;2.53;;
970;SDS011;28939;45.540;-122.632;2022-07-06T06:11:41;2.93;;;2.73;;
970;SDS011;28939;45.540;-122.632;2022-07-06T06:14:12;3.57;;;2.97;;
970;SDS011;28939;45.540;-122.632;2022-07-06T06:16:43;3.83;;;3.23;;
970;SDS011;28939;45.540;-122.632;2022-07-06T06:19:15;2.67;;;2.43;;
970;SDS011;28939;45.540;-122.632;2022-07-06T06:21:46;3.07;;;2.77;;
970;SDS011;28939;45.540;-122.632;2022-07-06T06:24:18;3.13;;;2.83;;
970;SDS011;28939;45.540;-122.632;2022-07-06T06:26:51;3.53;;;2.30;;
970;SDS011;28939;45.540;-122.632;2022-07-06T06:29:22;3.30;;;2.73;;
970;SDS011;28939;45.540;-122.632;2022-07-06T06:31:53;3.67;;;3.27;;
970;SDS011;28939;45.540;-122.632;2022-07-06T06:34:24;3.50;;;2.67;;
970;SDS011;28939;45.540;-122.632;2022-07-06T06:36:55;3.33;;;2.73;;
970;SDS011;28939;45.540;-122.632;2022-07-06T06:39:27;4.50;;;3.23;;
970;SDS011;28939;45.540;-122.632;2022-07-06T06:41:58;3.77;;;3.37;;
970;SDS011;28939;45.540;-122.632;2022-07-06T06:44:28;3.73;;;3.33;;
970;SDS011;28939;45.540;-122.632;2022-07-06T06:46:59;3.10;;;2.80;;
970;SDS011;28939;45.540;-122.632;2022-07-06T06:49:30;4.13;;;3.30;;
970;SDS011;28939;45.540;-122.632;2022-07-06T06:52:01;3.00;;;2.70;;
970;SDS011;28939;45.540;-122.632;2022-07-06T06:54:54;4.37;;;3.47;;
970;SDS011;28939;45.540;-122.632;2022-07-06T06:57:25;3.20;;;2.90;;
970;SDS011;28939;45.540;-122.632;2022-07-06T06:59:56;4.03;;;3.63;;
970;SDS011;28939;45.540;-122.632;2022-07-06T07:02:27;3.47;;;3.17;;
970;SDS011;28939;45.540;-122.632;2022-07-06T07:04:58;3.90;;;3.47;;
970;SDS011;28939;45.540;-122.632;2022-07-06T07:07:29;3.43;;;3.13;;
970;SDS011;28939;45.540;-122.632;2022-07-06T07:10:02;3.70;;;3.40;;
970;SDS011;28939;45.540;-122.632;2022-07-06T07:12:34;3.07;;;2.83;;
970;SDS011;28939;45.540;-122.632;2022-07-06T07:15:05;3.60;;;3.03;;
970;SDS011;28939;45.540;-122.632;2022-07-06T07:17:36;3.90;;;3.50;;
970;SDS011;28939;45.540;-122.632;2022-07-06T07:20:07;3.07;;;2.87;;
970;SDS011;28939;45.540;-122.632;2022-07-06T07:22:39;4.13;;;3.83;;
970;SDS011;28939;45.540;-122.632;2022-07-06T07:25:11;3.47;;;3.03;;
970;SDS011;28939;45.540;-122.632;2022-07-06T07:27:42;3.17;;;2.90;;
970;SDS011;28939;45.540;-122.632;2022-07-06T07:30:13;4.30;;;3.90;;
970;SDS011;28939;45.540;-122.632;2022-07-06T07:32:43;3.50;;;3.13;;
970;SDS011;28939;45.540;-122.632;2022-07-06T07:35:14;3.53;;;3.20;;
970;SDS011;28939;45.540;-122.632;2022-07-06T07:37:45;3.60;;;3.30;;
970;SDS011;28939;45.540;-122.632;2022-07-06T07:40:18;4.00;;;3.50;;
970;SDS011;28939;45.540;-122.632;2022-07-06T07:42:49;4.00;;;3.10;;
970;SDS011;28939;45.540;-122.632;2022-07-06T07:45:20;4.20;;;3.53;;
970;SDS011;28939;45.540;-122.632;2022-07-06T07:47:51;6.00;;;3.87;;
970;SDS011;28939;45.540;-122.632;2022-07-06T07:50:21;3.60;;;3.30;;
970;SDS011;28939;45.540;-122.632;2022-07-06T07:52:54;4.57;;;3.60;;
970;SDS011;28939;45.540;-122.632;2022-07-06T07:55:26;5.20;;;4.53;;
970;SDS011;28939;45.540;-122.632;2022-07-06T07:58:12;3.80;;;3.27;;
970;SDS011;28939;45.540;-122.632;2022-07-06T08:00:43;4.73;;;3.53;;
970;SDS011;28939;45.540;-122.632;2022-07-06T08:03:14;4.73;;;3.40;;
970;SDS011;28939;45.540;-122.632;2022-07-06T08:05:45;5.70;;;4.30;;
970;SDS011;28939;45.540;-122.632;2022-07-06T08:08:16;3.70;;;3.07;;
970;SDS011;28939;45.540;-122.632;2022-07-06T08:10:48;4.33;;;3.73;;
970;SDS011;28939;45.540;-122.632;2022-07-06T08:13:39;3.73;;;3.03;;
970;SDS011;28939;45.540;-122.632;2022-07-06T08:16:10;4.77;;;3.70;;
970;SDS011;28939;45.540;-122.632;2022-07-06T08:18:41;4.40;;;4.00;;
970;SDS011;28939;45.540;-122.632;2022-07-06T08:21:12;3.67;;;3.37;;
970;SDS011;28939;45.540;-122.632;2022-07-06T08:23:52;5.33;;;3.77;;
970;SDS011;28939;45.540;-122.632;2022-07-06T08:26:26;4.23;;;3.40;;
970;SDS011;28939;45.540;-122.632;2022-07-06T08:28:57;3.53;;;3.23;;
970;SDS011;28939;45.540;-122.632;2022-07-06T08:31:28;4.40;;;4.00;;
970;SDS011;28939;45.540;-122.632;2022-07-06T08:34:21;4.53;;;3.67;;
970;SDS011;28939;45.540;-122.632;2022-07-06T08:37:13;5.23;;;4.73;;
970;SDS011;28939;45.540;-122.632;2022-07-06T08:39:44;4.07;;;3.70;;
970;SDS011;28939;45.540;-122.632;2022-07-06T08:42:16;3.80;;;3.50;;
970;SDS011;28939;45.540;-122.632;2022-07-06T08:44:47;4.10;;;3.80;;
970;SDS011;28939;45.540;-122.632;2022-07-06T08:47:20;3.27;;;2.97;;
970;SDS011;28939;45.540;-122.632;2022-07-06T08:49:52;4.03;;;2.93;;
970;SDS011;28939;45.540;-122.632;2022-07-06T08:52:23;5.70;;;4.00;;
970;SDS011;28939;45.540;-122.632;2022-07-06T08:54:55;4.03;;;3.40;;
970;SDS011;28939;45.540;-122.632;2022-07-06T08:57:27;4.67;;;3.83;;
970;SDS011;28939;45.540;-122.632;2022-07-06T08:59:58;3.50;;;3.20;;
970;SDS011;28939;45.540;-122.632;2022-07-06T09:02:29;3.20;;;2.90;;
970;SDS011;28939;45.540;-122.632;2022-07-06T09:05:00;4.00;;;3.40;;
970;SDS011;28939;45.540;-122.632;2022-07-06T09:07:33;3.63;;;2.97;;
970;SDS011;28939;45.540;-122.632;2022-07-06T09:10:24;6.33;;;2.80;;
970;SDS011;28939;45.540;-122.632;2022-07-06T09:13:03;5.03;;;3.37;;
970;SDS011;28939;45.540;-122.632;2022-07-06T09:15:35;3.20;;;3.00;;
970;SDS011;28939;45.540;-122.632;2022-07-06T09:18:09;3.77;;;3.30;;
970;SDS011;28939;45.540;-122.632;2022-07-06T09:20:40;4.73;;;4.07;;
970;SDS011;28939;45.540;-122.632;2022-07-06T09:23:14;3.90;;;2.97;;
970;SDS011;28939;45.540;-122.632;2022-07-06T09:25:47;6.00;;;3.90;;
970;SDS011;28939;45.540;-122.632;2022-07-06T09:28:20;4.80;;;4.07;;
970;SDS011;28939;45.540;-122.632;2022-07-06T09:30:54;5.97;;;4.30;;
970;SDS011;28939;45.540;-122.632;2022-07-06T09:33:32;5.20;;;3.90;;
970;SDS011;28939;45.540;-122.632;2022-07-06T09:36:04;3.70;;;3.30;;
970;SDS011;28939;45.540;-122.632;2022-07-06T09:38:35;3.97;;;3.43;;
970;SDS011;28939;45.540;-122.632;2022-07-06T09:41:06;3.87;;;3.33;;
970;SDS011;28939;45.540;-122.632;2022-07-06T09:43:38;3.97;;;3.60;;
970;SDS011;28939;45.540;-122.632;2022-07-06T09:46:09;4.57;;;3.87;;
970;SDS011;28939;45.540;-122.632;2022-07-06T09:48:40;4.90;;;4.03;;
970;SDS011;28939;45.540;-122.632;2022-07-06T09:51:12;4.00;;;3.70;;
970;SDS011;28939;45.540;-122.632;2022-07-06T09:53:52;5.20;;;3.80;;
970;SDS011;28939;45.540;-122.632;2022-07-06T09:56:35;4.00;;;3.70;;
970;SDS011;28939;45.540;-122.632;2022-07-06T09:59:12;3.93;;;3.60;;
970;SDS011;28939;45.540;-122.632;2022-07-06T10:01:44;3.80;;;3.50;;
970;SDS011;28939;45.540;-122.632;2022-07-06T10:04:15;4.00;;;3.60;;
970;SDS011;28939;45.540;-122.632;2022-07-06T10:06:48;4.77;;;4.30;;
970;SDS011;28939;45.540;-122.632;2022-07-06T10:09:20;5.47;;;4.90;;
970;SDS011;28939;45.540;-122.632;2022-07-06T10:11:53;4.57;;;4.17;;
970;SDS011;28939;45.540;-122.632;2022-07-06T10:14:29;5.33;;;4.17;;
970;SDS011;28939;45.540;-122.632;2022-07-06T10:17:02;5.53;;;4.33;;
970;SDS011;28939;45.540;-122.632;2022-07-06T10:19:33;5.10;;;3.77;;
970;SDS011;28939;45.540;-122.632;2022-07-06T10:22:04;4.37;;;3.97;;
970;SDS011;28939;45.540;-122.632;2022-07-06T10:24:36;5.30;;;4.23;;
970;SDS011;28939;45.540;-122.632;2022-07-06T10:27:11;5.23;;;4.57;;
970;SDS011;28939;45.540;-122.632;2022-07-06T10:29:45;4.47;;;4.07;;
970;SDS011;28939;45.540;-122.632;2022-07-06T10:32:17;4.70;;;4.30;;
970;SDS011;28939;45.540;-122.632;2022-07-06T10:34:50;5.10;;;4.17;;
970;SDS011;28939;45.540;-122.632;2022-07-06T10:37:22;4.40;;;4.00;;
970;SDS011;28939;45.540;-122.632;2022-07-06T10:39:54;4.40;;;4.00;;
970;SDS011;28939;45.540;-122.632;2022-07-06T10:42:42;4.40;;;4.00;;
970;SDS011;28939;45.540;-122.632;2022-07-06T10:45:22;5.20;;;4.70;;
970;SDS011;28939;45.540;-122.632;2022-07-06T10:48:21;5.00;;;4.47;;
970;SDS011;28939;45.540;-122.632;2022-07-06T10:50:53;5.53;;;4.40;;
970;SDS011;28939;45.540;-122.632;2022-07-06T10:53:26;7.03;;;4.17;;
970;SDS011;28939;45.540;-122.632;2022-07-06T10:55:57;4.20;;;3.70;;
970;SDS011;28939;45.540;-122.632;2022-07-06T10:58:34;4.77;;;4.37;;
970;SDS011;28939;45.540;-122.632;2022-07-06T11:01:09;4.47;;;4.07;;
970;SDS011;28939;45.540;-122.632;2022-07-06T11:03:41;6.37;;;4.73;;
970;SDS011;28939;45.540;-122.632;2022-07-06T11:06:14;4.57;;;3.70;;
970;SDS011;28939;45.540;-122.632;2022-07-06T11:08:51;5.63;;;4.07;;
970;SDS011;28939;45.540;-122.632;2022-07-06T11:11:24;5.80;;;4.50;;
970;SDS011;28939;45.540;-122.632;2022-07-06T11:13:58;5.77;;;4.83;;
970;SDS011;28939;45.540;-122.632;2022-07-06T11:16:32;4.67;;;3.83;;
970;SDS011;28939;45.540;-122.632;2022-07-06T11:19:06;4.27;;;3.80;;
970;SDS011;28939;45.540;-122.632;2022-07-06T11:21:40;2.70;;;2.50;;
970;SDS011;28939;45.540;-122.632;2022-07-06T11:24:14;3.30;;;3.00;;
970;SDS011;28939;45.540;-122.632;2022-07-06T11:26:47;3.30;;;3.00;;
970;SDS011;28939;45.540;-122.632;2022-07-06T11:29:18;4.70;;;3.40;;
970;SDS011;28939;45.540;-122.632;2022-07-06T11:31:52;2.97;;;2.67;;
970;SDS011;28939;45.540;-122.632;2022-07-06T11:34:24;4.17;;;3.50;;
970;SDS011;28939;45.540;-122.632;2022-07-06T11:36:57;4.10;;;3.50;;
970;SDS011;28939;45.540;-122.632;2022-07-06T11:39:29;3.60;;;3.30;;
970;SDS011;28939;45.540;-122.632;2022-07-06T11:42:00;4.20;;;3.60;;
970;SDS011;28939;45.540;-122.632;2022-07-06T11:44:33;3.23;;;2.93;;
970;SDS011;28939;45.540;-122.632;2022-07-06T11:47:06;3.40;;;3.10;;
970;SDS011;28939;45.540;-122.632;2022-07-06T11:49:38;3.77;;;3.40;;
970;SDS011;28939;45.540;-122.632;2022-07-06T11:52:12;2.80;;;2.47;;
970;SDS011;28939;45.540;-122.632;2022-07-06T11:54:44;3.63;;;3.30;;
970;SDS011;28939;45.540;-122.632;2022-07-06T11:57:14;3.47;;;3.17;;
970;SDS011;28939;45.540;-122.632;2022-07-06T11:59:45;3.20;;;2.70;;
970;SDS011;28939;45.540;-122.632;2022-07-06T12:02:22;3.63;;;3.33;;
970;SDS011;28939;45.540;-122.632;2022-07-06T12:04:52;3.20;;;2.63;;
970;SDS011;28939;45.540;-122.632;2022-07-06T12:07:23;4.93;;;3.00;;
970;SDS011;28939;45.540;-122.632;2022-07-06T12:09:54;3.73;;;2.90;;
970;SDS011;28939;45.540;-122.632;2022-07-06T12:12:25;3.27;;;2.97;;
970;SDS011;28939;45.540;-122.632;2022-07-06T12:14:56;3.27;;;2.80;;
970;SDS011;28939;45.540;-122.632;2022-07-06T12:17:30;5.00;;;2.97;;
970;SDS011;28939;45.540;-122.632;2022-07-06T12:20:01;3.60;;;3.10;;
970;SDS011;28939;45.540;-122.632;2022-07-06T12:22:32;2.80;;;2.40;;
970;SDS011;28939;45.540;-122.632;2022-07-06T12:25:03;3.03;;;2.73;;
970;SDS011;28939;45.540;-122.632;2022-07-06T12:27:34;3.30;;;2.87;;
970;SDS011;28939;45.540;-122.632;2022-07-06T12:30:08;3.17;;;2.70;;
970;SDS011;28939;45.540;-122.632;2022-07-06T12:32:55;2.80;;;2.60;;
970;SDS011;28939;45.540;-122.632;2022-07-06T12:35:42;3.30;;;2.30;;
970;SDS011;28939;45.540;-122.632;2022-07-06T12:38:13;2.47;;;2.27;;
970;SDS011;28939;45.540;-122.632;2022-07-06T12:40:52;4.20;;;3.03;;
970;SDS011;28939;45.540;-122.632;2022-07-06T12:43:37;3.53;;;2.10;;
970;SDS011;28939;45.540;-122.632;2022-07-06T12:46:30;2.23;;;2.10;;
970;SDS011;28939;45.540;-122.632;2022-07-06T12:52:04;3.07;;;2.33;;
970;SDS011;28939;45.540;-122.632;2022-07-06T12:54:42;2.93;;;2.53;;
970;SDS011;28939;45.540;-122.632;2022-07-06T12:57:42;3.07;;;2.80;;
970;SDS011;28939;45.540;-122.632;2022-07-06T13:03:21;3.60;;;3.30;;
970;SDS011;28939;45.540;-122.632;2022-07-06T13:05:59;3.10;;;2.80;;
970;SDS011;28939;45.540;-122.632;2022-07-06T13:08:30;3.53;;;2.80;;
970;SDS011;28939;45.540;-122.632;2022-07-06T13:11:01;4.73;;;2.67;;
970;SDS011;28939;45.540;-122.632;2022-07-06T13:13:32;3.20;;;2.90;;
970;SDS011;28939;45.540;-122.632;2022-07-06T13:16:12;6.77;;;3.17;;
970;SDS011;28939;45.540;-122.632;2022-07-06T13:18:43;3.53;;;2.73;;
970;SDS011;28939;45.540;-122.632;2022-07-06T13:21:15;3.87;;;3.00;;
970;SDS011;28939;45.540;-122.632;2022-07-06T13:23:46;2.93;;;2.63;;
970;SDS011;28939;45.540;-122.632;2022-07-06T13:26:17;2.90;;;2.60;;
970;SDS011;28939;45.540;-122.632;2022-07-06T13:28:48;2.97;;;2.73;;
970;SDS011;28939;45.540;-122.632;2022-07-06T13:31:19;3.10;;;2.80;;
970;SDS011;28939;45.540;-122.632;2022-07-06T13:33:49;3.90;;;3.33;;
970;SDS011;28939;45.540;-122.632;2022-07-06T13:36:22;3.60;;;2.77;;
970;SDS011;28939;45.540;-122.632;2022-07-06T13:38:53;3.40;;;2.73;;
970;SDS011;28939;45.540;-122.632;2022-07-06T13:41:24;2.80;;;2.60;;
970;SDS011;28939;45.540;-122.632;2022-07-06T13:43:54;2.27;;;2.07;;
970;SDS011;28939;45.540;-122.632;2022-07-06T13:46:26;3.70;;;2.53;;
970;SDS011;28939;45.540;-122.632;2022-07-06T13:48:57;2.60;;;2.30;;
970;SDS011;28939;45.540;-122.632;2022-07-06T13:51:30;2.40;;;2.20;;
970;SDS011;28939;45.540;-122.632;2022-07-06T13:54:01;2.70;;;2.30;;
970;SDS011;28939;45.540;-122.632;2022-07-06T13:56:33;2.30;;;2.10;;
970;SDS011;28939;45.540;-122.632;2022-07-06T13:59:04;3.80;;;2.67;;
970;SDS011;28939;45.540;-122.632;2022-07-06T14:01:35;2.90;;;2.40;;
970;SDS011;28939;45.540;-122.632;2022-07-06T14:04:06;4.10;;;2.43;;
970;SDS011;28939;45.540;-122.632;2022-07-06T14:06:39;4.00;;;3.60;;
970;SDS011;28939;45.540;-122.632;2022-07-06T14:09:10;2.70;;;2.20;;
970;SDS011;28939;45.540;-122.632;2022-07-06T14:11:41;2.17;;;1.97;;
970;SDS011;28939;45.540;-122.632;2022-07-06T14:14:11;2.47;;;2.00;;
970;SDS011;28939;45.540;-122.632;2022-07-06T14:16:45;2.70;;;2.23;;
970;SDS011;28939;45.540;-122.632;2022-07-06T14:19:16;2.57;;;2.37;;
970;SDS011;28939;45.540;-122.632;2022-07-06T14:21:50;2.10;;;1.90;;
970;SDS011;28939;45.540;-122.632;2022-07-06T14:24:21;2.57;;;2.37;;
970;SDS011;28939;45.540;-122.632;2022-07-06T14:26:58;3.23;;;2.47;;
970;SDS011;28939;45.540;-122.632;2022-07-06T14:29:28;2.87;;;2.30;;
970;SDS011;28939;45.540;-122.632;2022-07-06T14:31:59;2.83;;;2.53;;
970;SDS011;28939;45.540;-122.632;2022-07-06T14:34:30;3.10;;;2.57;;
970;SDS011;28939;45.540;-122.632;2022-07-06T14:37:03;3.00;;;2.37;;
970;SDS011;28939;45.540;-122.632;2022-07-06T14:39:34;2.67;;;2.47;;
970;SDS011;28939;45.540;-122.632;2022-07-06T14:42:05;2.63;;;2.40;;
970;SDS011;28939;45.540;-122.632;2022-07-06T14:44:36;2.23;;;2.03;;
970;SDS011;28939;45.540;-122.632;2022-07-06T14:47:07;4.90;;;2.30;;
970;SDS011;28939;45.540;-122.632;2022-07-06T14:49:37;2.57;;;2.37;;
970;SDS011;28939;45.540;-122.632;2022-07-06T14:52:10;2.40;;;2.20;;
970;SDS011;28939;45.540;-122.632;2022-07-06T14:54:40;2.77;;;2.57;;
970;SDS011;28939;45.540;-122.632;2022-07-06T14:57:11;2.83;;;2.17;;
970;SDS011;28939;45.540;-122.632;2022-07-06T14:59:42;2.70;;;2.50;;
970;SDS011;28939;45.540;-122.632;2022-07-06T15:02:14;2.13;;;1.80;;
970;SDS011;28939;45.540;-122.632;2022-07-06T15:04:45;3.07;;;2.37;;
970;SDS011;28939;45.540;-122.632;2022-07-06T15:07:17;2.10;;;2.00;;
970;SDS011;28939;45.540;-122.632;2022-07-06T15:09:48;2.10;;;1.90;;